Time;durP1;ratioP1;P1;durP2;ratioP2;P2;SDS_P1;SDS_P2;PMS_P1;PMS_P2;Temp;Humidity;BMP_temperature;BMP_pressure;BME280_temperature;BME280_humidity;BME280_pressure;Samples;Min_cycle;Max_cycle;Signal;HPM_P1;HPM_P2
2021/06/27 00:01:39;;;;;;;27.05;24.15;;;;;;;16.31;80.84;101699.41;10538440;28;20055;-59
2021/06/27 00:06:42;;;;;;;26.58;23.60;;;;;;;16.25;79.41;101702.47;10539175;28;20044;-59
2021/06/27 00:11:44;;;;;;;24.73;22.25;;;;;;;16.34;80.10;101714.25;10539305;28;20047;-59
2021/06/27 00:16:47;;;;;;;30.02;23.65;;;;;;;16.24;80.54;101706.06;10539495;28;20075;-59
2021/06/27 00:21:50;;;;;;;25.85;23.13;;;;;;;16.12;80.61;101713.03;10537903;28;20519;-59
2021/06/27 00:26:52;;;;;;;29.70;24.85;;;;;;;16.03;81.46;101704.84;10539080;28;20052;-59
2021/06/27 00:31:55;;;;;;;28.45;25.65;;;;;;;15.97;81.85;101706.97;10539819;28;20047;-59
2021/06/27 00:36:57;;;;;;;29.58;26.25;;;;;;;15.90;81.99;101707.44;10538781;28;20531;-59
2021/06/27 00:42:00;;;;;;;30.00;26.77;;;;;;;15.89;82.33;101696.03;10539175;28;20048;-59
2021/06/27 00:47:02;;;;;;;26.42;23.60;;;;;;;16.09;80.27;101702.66;10538663;28;20048;-59
2021/06/27 00:52:05;;;;;;;28.92;25.92;;;;;;;15.90;80.99;101707.44;10538726;28;20047;-59
2021/06/27 00:57:07;;;;;;;29.25;26.17;;;;;;;15.87;81.61;101703.22;10538884;28;20052;-59
2021/06/27 01:02:10;;;;;;;34.90;28.55;;;;;;;16.01;80.81;101707.59;10537183;28;20399;-59
2021/06/27 01:07:12;;;;;;;32.45;28.33;;;;;;;15.96;81.23;101701.78;10537929;28;20419;-59
2021/06/27 01:12:14;;;;;;;33.97;30.17;;;;;;;15.74;82.26;101694.38;10538340;28;20357;-59
2021/06/27 01:17:17;;;;;;;34.38;30.67;;;;;;;15.68;82.06;101700.03;10540944;28;20048;-59
2021/06/27 01:22:19;;;;;;;31.17;27.52;;;;;;;15.75;82.55;101693.41;10546115;28;20072;-59
2021/06/27 01:27:22;;;;;;;33.83;28.17;;;;;;;15.78;81.08;101687.97;10545776;28;20044;-59
2021/06/27 01:32:25;;;;;;;29.98;26.23;;;;;;;16.05;80.04;101695.03;10546165;28;20051;-59
2021/06/27 01:37:27;;;;;;;33.25;29.75;;;;;;;15.65;82.87;101689.69;10544966;28;20044;-59
2021/06/27 01:42:29;;;;;;;33.10;29.35;;;;;;;15.72;82.86;101683.06;10544905;28;20040;-59
2021/06/27 01:47:32;;;;;;;36.28;30.35;;;;;;;15.67;82.86;101678.09;10544483;28;20051;-59
2021/06/27 01:52:35;;;;;;;36.47;32.20;;;;;;;15.64;82.84;101673.00;10544442;28;20055;-59
2021/06/27 01:57:37;;;;;;;36.45;28.58;;;;;;;15.76;81.23;101671.38;10543923;28;20408;-59
2021/06/27 02:02:40;;;;;;;35.50;31.52;;;;;;;15.49;82.96;101672.19;10544036;28;20135;-58
2021/06/27 02:07:42;;;;;;;31.65;28.27;;;;;;;15.69;81.69;101670.91;10544446;28;20051;-58
2021/06/27 02:12:45;;;;;;;34.10;29.58;;;;;;;15.73;81.19;101669.75;10543392;28;20510;-58
2021/06/27 02:17:54;;;;;;;35.58;30.27;;;;;;;15.48;83.05;101667.00;10543493;28;20071;-58
2021/06/27 02:22:56;;;;;;;37.75;32.83;;;;;;;15.57;82.11;101675.19;10543653;28;20051;-58
2021/06/27 02:27:58;;;;;;;37.70;32.42;;;;;;;15.41;82.72;101672.69;10543331;28;20081;-59
2021/06/27 02:33:02;;;;;;;38.85;31.95;;;;;;;15.24;83.66;101675.56;10543089;28;20048;-59
2021/06/27 02:38:04;;;;;;;38.83;32.03;;;;;;;15.28;83.06;101674.44;10541334;28;20051;-59
2021/06/27 02:43:07;;;;;;;36.95;31.15;;;;;;;15.20;83.87;101668.78;10542715;28;20040;-59
2021/06/27 02:48:09;;;;;;;42.67;33.08;;;;;;;15.17;84.36;101666.34;10542030;28;20051;-59
2021/06/27 02:53:12;;;;;;;36.75;32.67;;;;;;;15.23;82.82;101674.72;10542788;28;20040;-59
2021/06/27 02:58:14;;;;;;;37.88;31.70;;;;;;;15.16;83.31;101665.50;10542359;28;20048;-59
2021/06/27 03:03:18;;;;;;;36.78;31.90;;;;;;;15.00;83.48;101655.06;10541562;28;20411;-59
2021/06/27 03:08:20;;;;;;;35.40;31.60;;;;;;;15.02;84.08;101654.97;10541189;28;20491;-59
2021/06/27 03:13:23;;;;;;;37.75;31.08;;;;;;;15.06;83.44;101645.91;10541360;28;20044;-59
2021/06/27 03:18:25;;;;;;;32.65;28.92;;;;;;;15.00;83.21;101646.31;10541072;28;20051;-59
2021/06/27 03:23:28;;;;;;;37.50;31.30;;;;;;;15.01;84.50;101645.34;10540778;28;20048;-59
2021/06/27 03:28:33;;;;;;;35.65;31.17;;;;;;;15.02;84.00;101634.69;10540264;28;20469;-59
2021/06/27 03:33:36;;;;;;;39.55;30.70;;;;;;;15.10;83.61;101638.66;10540421;28;20055;-59
2021/06/27 03:38:48;;;;;;;37.50;32.63;;;;;;;15.01;84.11;101637.44;10539810;28;20048;-59
2021/06/27 03:43:50;;;;;;;42.53;33.50;;;;;;;15.08;83.71;101633.47;10540418;28;20054;-58
2021/06/27 03:48:53;;;;;;;37.75;30.65;;;;;;;15.16;83.89;101638.25;10540001;28;20044;-59
2021/06/27 03:53:55;;;;;;;36.55;31.20;;;;;;;15.13;83.98;101625.25;10540253;28;20498;-58
2021/06/27 03:58:58;;;;;;;39.63;34.15;;;;;;;15.21;83.01;101623.84;10540078;28;20059;-58
2021/06/27 04:04:02;;;;;;;38.35;32.97;;;;;;;15.18;83.52;101626.69;10539871;28;20063;-58
2021/06/27 04:09:04;;;;;;;44.92;36.30;;;;;;;15.22;84.27;101629.97;10539458;28;20422;-58
2021/06/27 04:14:06;;;;;;;47.33;34.33;;;;;;;15.21;83.55;101634.41;10539384;28;20050;-58
2021/06/27 04:19:09;;;;;;;43.47;36.08;;;;;;;15.39;83.68;101629.72;10539417;28;20052;-58
2021/06/27 04:24:11;;;;;;;38.35;32.20;;;;;;;15.57;83.49;101627.69;10538927;28;20066;-59
2021/06/27 04:29:14;;;;;;;48.00;38.67;;;;;;;15.61;84.56;101615.13;10539322;28;20051;-58
2021/06/27 04:34:18;;;;;;;46.30;38.53;;;;;;;15.90;83.71;101604.44;10538280;28;20499;-58
2021/06/27 04:39:20;;;;;;;43.05;34.85;;;;;;;16.11;83.44;101597.72;10538594;28;20048;-58
2021/06/27 04:44:22;;;;;;;40.15;33.60;;;;;;;16.28;82.73;101598.38;10539805;28;20102;-58
2021/06/27 04:49:25;;;;;;;48.05;40.03;;;;;;;16.43;82.64;101604.41;10538513;28;20063;-58
2021/06/27 04:54:27;;;;;;;46.20;35.80;;;;;;;16.73;81.56;101601.41;10543918;28;20051;-58
2021/06/27 04:59:29;;;;;;;43.65;37.70;;;;;;;16.65;82.39;101609.03;10546731;28;20078;-58
2021/06/27 05:04:32;;;;;;;55.75;42.60;;;;;;;16.81;81.53;101607.00;10546441;28;20048;-58
2021/06/27 05:09:34;;;;;;;46.78;38.03;;;;;;;16.94;81.04;101598.22;10546104;28;20051;-58
2021/06/27 05:14:37;;;;;;;45.88;38.97;;;;;;;16.97;81.08;101587.41;10544731;28;20499;-58
2021/06/27 05:19:39;;;;;;;50.67;43.13;;;;;;;17.08;82.30;101582.22;10545792;28;20070;-59
2021/06/27 05:24:41;;;;;;;53.35;40.38;;;;;;;17.38;81.75;101595.00;10545685;28;20056;-58
2021/06/27 05:29:44;;;;;;;50.92;40.72;;;;;;;17.45;81.12;101588.28;10545298;28;20059;-59
2021/06/27 05:34:47;;;;;;;50.08;40.53;;;;;;;17.48;81.35;101581.06;10544941;28;20055;-58
2021/06/27 05:39:49;;;;;;;45.97;37.95;;;;;;;17.79;79.15;101566.38;10545239;28;20052;-58
2021/06/27 05:44:51;;;;;;;42.78;37.22;;;;;;;17.82;79.34;101556.41;10544504;28;20048;-58
2021/06/27 05:49:54;;;;;;;40.88;32.92;;;;;;;18.00;78.44;101555.97;10544665;28;20048;-58
2021/06/27 05:54:56;;;;;;;40.15;31.98;;;;;;;18.04;78.57;101560.09;10542776;28;20051;-59
2021/06/27 05:59:58;;;;;;;33.33;29.88;;;;;;;18.26;76.66;101563.72;10543977;28;20059;-59
2021/06/27 06:05:01;;;;;;;35.85;31.95;;;;;;;18.18;76.94;101564.31;10543504;28;20056;-59
2021/06/27 06:10:04;;;;;;;38.78;32.70;;;;;;;18.24;76.98;101566.50;10543569;28;20069;-58
2021/06/27 06:15:07;;;;;;;35.25;31.00;;;;;;;18.45;77.40;101571.06;10542272;28;20060;-58
2021/06/27 06:20:11;;;;;;;35.38;29.35;;;;;;;18.46;76.85;101576.25;10543378;28;20044;-58
2021/06/27 06:25:13;;;;;;;31.95;27.65;;;;;;;18.70;74.00;101580.59;10543058;28;20050;-59
2021/06/27 06:30:16;;;;;;;34.33;30.77;;;;;;;18.77;76.63;101580.94;10542560;28;20058;-58
2021/06/27 06:35:19;;;;;;;31.92;28.60;;;;;;;18.92;74.30;101582.41;10542913;28;20055;-59
2021/06/27 06:40:21;;;;;;;32.40;28.20;;;;;;;19.02;74.16;101583.34;10542458;28;20055;-59
2021/06/27 06:45:24;;;;;;;30.63;27.13;;;;;;;19.28;74.69;101588.31;10542081;28;20491;-58
2021/06/27 06:50:27;;;;;;;37.53;26.20;;;;;;;19.21;72.69;101577.38;10541829;28;20052;-58
2021/06/27 06:55:29;;;;;;;29.55;26.38;;;;;;;19.75;72.49;101580.09;10541679;28;20450;-59
2021/06/27 07:00:32;;;;;;;26.15;23.42;;;;;;;19.66;72.10;101573.69;10541546;28;20060;-58
2021/06/27 07:05:35;;;;;;;28.08;24.45;;;;;;;19.90;72.37;101581.44;10541699;28;20043;-59
2021/06/27 07:10:37;;;;;;;24.10;21.67;;;;;;;20.08;72.00;101581.69;10541624;28;20051;-58
2021/06/27 07:15:40;;;;;;;28.95;25.88;;;;;;;20.12;71.85;101577.78;10540228;28;20420;-59
2021/06/27 07:20:43;;;;;;;27.10;24.30;;;;;;;20.15;70.48;101576.69;10540974;28;20044;-59
2021/06/27 07:25:46;;;;;;;26.55;23.80;;;;;;;19.95;70.48;101568.59;10539360;28;20052;-58
2021/06/27 07:30:48;;;;;;;24.98;22.33;;;;;;;20.25;70.90;101564.28;10541269;28;20055;-59
2021/06/27 07:35:50;;;;;;;26.20;23.50;;;;;;;20.17;70.39;101572.94;10540254;28;20105;-59
2021/06/27 07:40:54;;;;;;;23.25;20.77;;;;;;;20.70;71.13;101582.56;10540151;28;20048;-60
2021/06/27 07:45:57;;;;;;;23.75;21.17;;;;;;;20.85;70.98;101587.53;10540067;28;20043;-59
2021/06/27 07:51:00;;;;;;;23.58;21.15;;;;;;;20.72;69.26;101579.78;10538888;28;20134;-59
2021/06/27 07:56:02;;;;;;;22.65;20.30;;;;;;;21.06;69.69;101576.75;10539508;28;20491;-60
2021/06/27 08:01:25;;;;;;;24.05;21.10;;;;;;;21.31;69.02;101573.56;10539616;28;20403;-60
2021/06/27 08:06:27;;;;;;;22.77;20.45;;;;;;;21.12;67.20;101576.22;10540787;28;20052;-60
2021/06/27 08:11:30;;;;;;;25.35;21.73;;;;;;;21.41;67.23;101581.56;10539381;28;20052;-60
2021/06/27 08:16:32;;;;;;;22.08;19.75;;;;;;;21.84;66.02;101577.63;10538970;28;20403;-60
2021/06/27 08:21:35;;;;;;;20.50;18.05;;;;;;;22.44;65.74;101574.69;10538667;28;20123;-60
2021/06/27 08:26:37;;;;;;;17.58;16.05;;;;;;;22.76;66.46;101570.75;10543292;28;20055;-61
2021/06/27 08:31:40;;;;;;;18.58;16.75;;;;;;;22.06;65.17;101572.97;10547567;28;20063;-60
2021/06/27 08:36:43;;;;;;;18.88;17.02;;;;;;;22.20;63.20;101571.66;10547145;28;20044;-59
2021/06/27 08:41:45;;;;;;;18.80;16.90;;;;;;;22.53;63.74;101567.63;10547530;28;20048;-58
2021/06/27 08:46:49;;;;;;;17.98;16.30;;;;;;;22.98;61.84;101574.81;10546816;28;20432;-60
2021/06/27 08:51:52;;;;;;;17.70;16.00;;;;;;;22.83;61.90;101562.97;10545721;28;20082;-60
2021/06/27 08:56:55;;;;;;;18.65;15.57;;;;;;;23.39;61.96;101574.41;10546198;28;20055;-59
2021/06/27 09:02:01;;;;;;;15.52;14.07;;;;;;;24.89;58.80;101559.91;10545292;28;20048;-60
2021/06/27 09:07:26;;;;;;;19.55;17.55;;;;;;;23.81;61.48;101559.53;10546435;28;20082;-58
2021/06/27 09:12:44;;;;;;;18.05;16.33;;;;;;;23.53;60.35;101562.31;10545759;28;20423;-58
2021/06/27 09:17:48;;;;;;;15.32;13.90;;;;;;;24.83;59.62;101555.22;10545822;28;20048;-58
2021/06/27 09:22:54;;;;;;;17.20;15.60;;;;;;;24.37;59.89;101546.66;10545539;28;20545;-58
2021/06/27 09:28:42;;;;;;;19.30;17.38;;;;;;;24.00;62.47;101550.50;10545657;28;20089;-59
2021/06/27 09:33:44;;;;;;;20.73;18.55;;;;;;;23.67;59.64;101544.88;10517745;28;20052;-59
2021/06/27 09:38:49;;;;;;;18.20;16.55;;;;;;;24.14;62.17;101541.03;10542925;28;20058;-59
2021/06/27 09:43:57;;;;;;;18.60;16.80;;;;;;;24.13;61.29;101537.53;10545588;28;20040;-60
2021/06/27 09:49:03;;;;;;;17.98;15.23;;;;;;;23.95;60.76;101532.25;10544569;28;20446;-59
2021/06/27 09:54:15;;;;;;;17.50;15.70;;;;;;;23.95;59.43;101534.91;10545489;28;20044;-58
2021/06/27 09:59:20;;;;;;;16.67;14.98;;;;;;;24.65;58.84;101525.91;10544557;28;20052;-59
2021/06/27 10:04:28;;;;;;;17.42;15.82;;;;;;;24.29;56.95;101516.22;10542901;28;20391;-59
2021/06/27 10:09:33;;;;;;;14.20;12.80;;;;;;;24.83;60.92;101515.91;10544511;28;20060;-59
2021/06/27 10:14:58;;;;;;;17.40;15.48;;;;;;;25.37;58.54;101510.09;10543810;28;20048;-59
2021/06/27 10:20:00;;;;;;;17.77;14.63;;;;;;;25.01;59.68;101499.66;10543317;28;20601;-60
2021/06/27 10:25:06;;;;;;;15.32;13.98;;;;;;;25.86;56.16;101495.78;10543153;28;20522;-60
2021/06/27 10:30:11;;;;;;;14.25;12.88;;;;;;;26.28;55.84;101493.81;10543113;28;20381;-60
2021/06/27 10:35:14;;;;;;;17.77;16.10;;;;;;;24.66;58.72;101490.94;10542808;28;20050;-60
2021/06/27 10:40:19;;;;;;;15.95;14.35;;;;;;;25.68;56.68;101481.75;10541463;28;20048;-60
2021/06/27 10:45:23;;;;;;;12.30;11.25;;;;;;;26.23;55.24;101480.09;10541452;28;20044;-59
2021/06/27 10:50:50;;;;;;;12.48;11.38;;;;;;;26.54;53.68;101482.75;10540877;28;20059;-59
2021/06/27 10:55:59;;;;;;;12.30;11.13;;;;;;;26.20;55.16;101485.81;10541813;28;20051;-59
2021/06/27 11:01:08;;;;;;;13.30;11.95;;;;;;;26.05;54.56;101475.78;10540534;28;20051;-59
2021/06/27 11:06:16;;;;;;;8.80;8.00;;;;;;;27.15;49.49;101479.34;10541128;28;20048;-59
2021/06/27 11:11:21;;;;;;;10.63;8.40;;;;;;;27.83;51.56;101471.31;10541538;28;20048;-60
2021/06/27 11:16:24;;;;;;;9.48;8.63;;;;;;;28.37;51.03;101451.31;10539909;28;20490;-60
2021/06/27 11:21:37;;;;;;;8.57;7.72;;;;;;;30.41;43.02;101445.97;10539921;28;20044;-59
2021/06/27 11:26:50;;;;;;;8.27;7.57;;;;;;;28.90;46.60;101441.94;10541208;28;20122;-59
2021/06/27 11:31:53;;;;;;;6.95;6.43;;;;;;;28.25;44.72;101449.09;10541102;28;20048;-60
2021/06/27 11:37:19;;;;;;;6.15;5.60;;;;;;;29.42;45.45;101436.31;10540327;28;20066;-60
2021/06/27 11:42:30;;;;;;;6.65;5.07;;;;;;;29.33;41.07;101434.81;10533884;28;20052;-60
2021/06/27 11:47:40;;;;;;;6.43;5.85;;;;;;;28.52;44.22;101433.25;10540139;28;20502;-59
2021/06/27 11:52:43;;;;;;;6.32;4.93;;;;;;;29.99;42.69;101428.97;10540503;28;20056;-59
2021/06/27 11:57:45;;;;;;;6.65;5.78;;;;;;;30.81;39.69;101423.59;10539754;28;20056;-60
2021/06/27 12:02:47;;;;;;;4.80;4.50;;;;;;;30.79;39.79;101425.66;10539411;28;20069;-59
2021/06/27 12:07:50;;;;;;;5.88;5.47;;;;;;;31.02;41.02;101426.13;10539689;28;20044;-60
2021/06/27 12:13:01;;;;;;;4.70;4.40;;;;;;;30.53;42.08;101419.19;10539600;28;20040;-60
2021/06/27 12:18:13;;;;;;;5.68;5.28;;;;;;;29.40;39.35;101424.91;10539061;28;20410;-60
2021/06/27 12:23:40;;;;;;;5.18;4.82;;;;;;;30.31;41.42;101410.38;10539497;28;20044;-60
2021/06/27 12:28:49;;;;;;;4.82;4.53;;;;;;;31.40;41.27;101411.91;10539275;28;20044;-59
2021/06/27 12:33:52;;;;;;;4.78;4.40;;;;;;;31.79;37.74;101407.44;10538498;28;20048;-61
2021/06/27 12:39:00;;;;;;;4.60;4.20;;;;;;;32.08;38.20;101399.00;10539395;28;20048;-61
2021/06/27 12:44:04;;;;;;;7.28;4.13;;;;;;;30.67;41.47;101396.56;10539128;28;20044;-60
2021/06/27 12:49:18;;;;;;;4.95;4.55;;;;;;;29.75;38.82;101392.53;10539083;28;20399;-61
2021/06/27 12:54:43;;;;;;;4.78;4.47;;;;;;;30.16;43.22;101399.75;10539540;28;20059;-60
2021/06/27 12:59:56;;;;;;;6.22;4.70;;;;;;;30.52;37.99;101391.34;10538315;28;20056;-60
2021/06/27 13:05:00;;;;;;;5.22;4.65;;;;;;;31.61;38.02;101381.06;10538867;28;20040;-61
2021/06/27 13:10:19;;;;;;;4.60;4.18;;;;;;;32.35;35.33;101376.13;10538382;28;20044;-60
2021/06/27 13:15:24;;;;;;;3.95;3.63;;;;;;;31.70;34.85;101370.81;10544683;28;20065;-60
2021/06/27 13:20:35;;;;;;;5.97;4.00;;;;;;;31.91;36.20;101364.28;10544584;28;20380;-60
2021/06/27 13:25:44;;;;;;;4.95;3.30;;;;;;;31.20;38.36;101357.00;10545173;28;20056;-61
2021/06/27 13:30:52;;;;;;;4.03;3.72;;;;;;;32.16;35.79;101353.56;10526919;28;20404;-61
2021/06/27 13:36:06;;;;;;;4.90;4.50;;;;;;;30.63;38.19;101352.06;10544763;28;20058;-61
2021/06/27 13:41:10;;;;;;;5.65;4.30;;;;;;;32.51;36.10;101349.53;10544871;28;20056;-60
2021/06/27 13:46:12;;;;;;;4.50;4.15;;;;;;;30.57;37.70;101339.38;10543892;28;20051;-60
2021/06/27 13:51:19;;;;;;;5.70;3.83;;;;;;;32.86;34.68;101332.78;10544062;28;20056;-60
2021/06/27 13:56:26;;;;;;;5.57;4.18;;;;;;;29.87;38.94;101333.44;10543740;28;20055;-61
2021/06/27 14:01:31;;;;;;;4.70;4.13;;;;;;;31.29;38.66;101329.53;10543644;28;21051;-62
2021/06/27 14:06:34;;;;;;;4.32;3.47;;;;;;;31.63;35.77;101319.44;10544231;28;20098;-61
2021/06/27 14:11:36;;;;;;;4.28;3.88;;;;;;;32.80;37.21;101311.97;10543120;28;20055;-61
2021/06/27 14:16:45;;;;;;;3.53;3.33;;;;;;;32.49;34.26;101300.97;10524788;28;20047;-61
2021/06/27 14:21:50;;;;;;;3.80;3.60;;;;;;;31.32;36.26;101300.38;10542447;28;20514;-60
2021/06/27 14:26:53;;;;;;;3.70;3.50;;;;;;;31.90;33.15;101291.41;10541996;28;20040;-60
2021/06/27 14:31:55;;;;;;;3.22;2.97;;;;;;;31.65;33.30;101286.75;10542150;28;20096;-61
2021/06/27 14:36:58;;;;;;;3.33;3.13;;;;;;;32.90;35.00;101272.47;10541897;28;20449;-60
2021/06/27 14:42:00;;;;;;;3.20;3.00;;;;;;;32.73;34.70;101274.94;10541728;28;20404;-62
2021/06/27 14:47:03;;;;;;;3.88;2.95;;;;;;;31.70;34.90;101262.56;10541701;28;20071;-61
2021/06/27 14:52:05;;;;;;;4.45;2.90;;;;;;;32.37;36.47;101262.94;10541472;28;20479;-61
2021/06/27 14:57:08;;;;;;;5.32;3.50;;;;;;;30.57;34.56;101247.53;10541582;28;20060;-61
2021/06/27 15:02:10;;;;;;;3.47;3.28;;;;;;;30.04;37.11;101258.31;10540928;28;20488;-61
2021/06/27 15:07:14;;;;;;;3.50;3.20;;;;;;;29.43;39.40;101249.22;10541021;28;20051;-61
2021/06/27 15:12:16;;;;;;;5.55;3.20;;;;;;;29.21;40.13;101256.59;10539264;28;20056;-61
2021/06/27 15:17:18;;;;;;;3.78;3.40;;;;;;;28.48;40.86;101252.34;10540569;28;20121;-60
2021/06/27 15:22:21;;;;;;;5.00;3.22;;;;;;;27.85;41.01;101271.00;10540169;28;20498;-61
2021/06/27 15:27:23;;;;;;;4.15;3.85;;;;;;;27.43;40.88;101262.66;10539612;28;20054;-60
2021/06/27 15:32:25;;;;;;;3.70;3.40;;;;;;;27.73;42.58;101264.47;10540214;28;20074;-61
2021/06/27 15:37:28;;;;;;;3.80;3.38;;;;;;;27.77;41.62;101255.84;10539317;28;20048;-61
2021/06/27 15:42:30;;;;;;;3.30;3.10;;;;;;;27.19;45.12;101247.66;10540058;28;20093;-61
2021/06/27 15:47:32;;;;;;;9.00;3.22;;;;;;;27.30;45.93;101241.00;10539932;28;20103;-61
2021/06/27 15:52:35;;;;;;;3.45;3.20;;;;;;;26.80;47.07;101231.84;10539811;28;20048;-60
2021/06/27 15:57:37;;;;;;;4.32;3.97;;;;;;;26.81;48.90;101237.00;10539530;28;20056;-61
2021/06/27 16:02:40;;;;;;;3.70;3.47;;;;;;;26.52;51.21;101224.34;10538919;28;20063;-61
2021/06/27 16:07:43;;;;;;;3.80;3.50;;;;;;;26.28;51.76;101226.25;10539014;28;20491;-61
2021/06/27 16:12:46;;;;;;;3.65;3.35;;;;;;;26.17;53.75;101237.41;10538829;28;20059;-61
2021/06/27 16:17:48;;;;;;;5.47;3.88;;;;;;;26.16;52.52;101233.09;10538344;28;20423;-61
2021/06/27 16:22:51;;;;;;;4.88;3.35;;;;;;;25.02;51.80;101260.28;10537499;28;20094;-61
2021/06/27 16:27:53;;;;;;;2.67;2.50;;;;;;;24.56;48.86;101268.06;10538379;28;20051;-60
2021/06/27 16:32:56;;;;;;;21.23;7.93;;;;;;;19.18;81.21;101360.00;10538406;28;20048;-63
2021/06/27 16:37:58;;;;;;;15.10;10.85;;;;;;;19.56;83.97;101288.63;10538330;28;20052;-61
2021/06/27 16:43:00;;;;;;;13.13;8.65;;;;;;;19.83;81.13;101339.31;10538743;28;20059;-62
2021/06/27 16:48:03;;;;;;;15.43;8.15;;;;;;;19.46;86.14;101354.97;10542397;28;20055;-62
2021/06/27 16:53:05;;;;;;;53.95;15.60;;;;;;;19.62;83.73;101351.81;10545982;28;20503;-62
2021/06/27 16:58:08;;;;;;;107.28;25.20;;;;;;;20.08;86.53;101360.25;10545816;28;20058;-61
2021/06/27 17:03:10;;;;;;;40.15;12.95;;;;;;;19.94;85.77;101364.97;10546373;28;20049;-61
2021/06/27 17:08:12;;;;;;;8.27;5.95;;;;;;;19.15;83.69;101373.53;10545414;28;20399;-61
2021/06/27 17:13:15;;;;;;;19.70;7.35;;;;;;;19.02;86.59;101383.47;10545545;28;20127;-61
2021/06/27 17:18:18;;;;;;;20.83;9.45;;;;;;;19.42;87.13;101390.72;10545051;28;20052;-61
2021/06/27 17:23:21;;;;;;;94.53;22.80;;;;;;;19.49;87.32;101402.50;10544733;28;20048;-62
2021/06/27 17:28:26;;;;;;;50.50;19.67;;;;;;;19.61;85.69;101413.88;10543455;28;20048;-62
2021/06/27 17:33:29;;;;;;;37.60;18.08;;;;;;;19.61;86.35;101421.84;10544895;28;20059;-62
2021/06/27 17:38:31;;;;;;;22.55;13.02;;;;;;;19.75;85.94;101428.66;10544037;28;20126;-62
2021/06/27 17:43:33;;;;;;;36.28;16.98;;;;;;;19.78;85.75;101441.69;10544364;28;20059;-62
2021/06/27 17:48:36;;;;;;;13.57;9.88;;;;;;;19.67;84.72;101462.00;10544217;28;20103;-62
2021/06/27 17:53:39;;;;;;;20.27;13.85;;;;;;;19.71;84.00;101462.59;10543766;28;20526;-62
2021/06/27 17:58:41;;;;;;;62.08;24.35;;;;;;;19.90;86.63;101464.50;10542978;28;20052;-62
2021/06/27 18:03:44;;;;;;;44.75;22.90;;;;;;;19.73;87.25;101463.28;10543009;28;20051;-62
2021/06/27 18:08:47;;;;;;;15.07;10.85;;;;;;;19.80;81.82;101469.81;10541597;28;20044;-61
2021/06/27 18:13:50;;;;;;;16.15;12.27;;;;;;;19.53;84.47;101470.28;10543069;28;20052;-61
2021/06/27 18:18:53;;;;;;;14.07;11.07;;;;;;;19.72;82.41;101455.44;10542886;28;20055;-62
2021/06/27 18:23:55;;;;;;;38.75;19.65;;;;;;;19.66;86.22;101444.38;10542861;28;20070;-61
2021/06/27 18:28:58;;;;;;;15.50;12.60;;;;;;;19.92;83.34;101438.69;10542415;28;20052;-61
2021/06/27 18:34:00;;;;;;;15.80;13.35;;;;;;;19.68;85.20;101423.00;10542166;28;20044;-62
2021/06/27 18:39:04;;;;;;;15.90;12.38;;;;;;;19.57;86.82;101408.00;10540737;28;20051;-62
2021/06/27 18:44:06;;;;;;;17.40;14.80;;;;;;;19.60;85.22;101407.75;10541921;28;20373;-62
2021/06/27 18:49:09;;;;;;;18.08;15.52;;;;;;;19.14;86.30;101410.81;10541591;28;20079;-62
2021/06/27 18:54:12;;;;;;;28.95;19.10;;;;;;;19.23;86.49;101400.25;10540888;28;20088;-61
2021/06/27 18:59:14;;;;;;;14.05;12.13;;;;;;;19.47;86.91;101399.97;10541191;28;20052;-61
2021/06/27 19:04:17;;;;;;;30.23;19.45;;;;;;;19.44;87.23;101394.09;10541164;28;20044;-61
2021/06/27 19:09:19;;;;;;;14.45;12.15;;;;;;;19.64;84.93;101390.53;10540108;28;20500;-61
2021/06/27 19:14:21;;;;;;;22.95;15.88;;;;;;;19.46;86.85;101384.16;10539673;28;20388;-61
2021/06/27 19:19:24;;;;;;;21.92;16.02;;;;;;;19.31;85.99;101387.16;10540160;28;20048;-61
2021/06/27 19:24:26;;;;;;;17.13;13.48;;;;;;;19.35;86.86;101390.41;10540818;28;20052;-62
2021/06/27 19:29:29;;;;;;;15.93;13.73;;;;;;;19.10;85.64;101383.69;10540504;28;20059;-61
2021/06/27 19:34:46;;;;;;;14.98;13.50;;;;;;;19.01;85.87;101385.28;10539757;28;20048;-61
2021/06/27 19:39:49;;;;;;;13.18;11.75;;;;;;;19.15;86.94;101380.63;10539440;28;20044;-61
2021/06/27 19:44:51;;;;;;;11.65;10.55;;;;;;;19.06;83.35;101387.56;10539356;28;20043;-61
2021/06/27 19:49:53;;;;;;;16.05;12.77;;;;;;;18.88;85.53;101379.34;10539153;28;20376;-61
2021/06/27 19:55:00;;;;;;;15.70;12.07;;;;;;;18.88;85.54;101374.03;10539347;28;20051;-61
2021/06/27 20:00:05;;;;;;;18.55;13.43;;;;;;;18.85;86.42;101385.72;10539030;28;20048;-61
2021/06/27 20:05:09;;;;;;;12.40;10.15;;;;;;;18.47;86.38;101387.03;10538903;28;20043;-61
2021/06/27 20:10:11;;;;;;;8.80;8.00;;;;;;;18.43;85.00;101390.09;10538901;28;20052;-61
2021/06/27 20:15:16;;;;;;;8.52;7.68;;;;;;;18.38;85.86;101387.81;10538378;28;20050;-61
2021/06/27 20:20:19;;;;;;;8.00;6.85;;;;;;;18.59;84.73;101392.31;10537223;28;20052;-61
2021/06/27 20:25:21;;;;;;;9.48;8.50;;;;;;;18.41;86.61;101384.91;10552193;28;20043;-61
2021/06/27 20:30:24;;;;;;;9.77;8.77;;;;;;;18.57;85.75;101395.09;10552430;28;20048;-61
2021/06/27 20:35:26;;;;;;;8.27;7.45;;;;;;;18.57;81.53;101400.38;10551906;28;20040;-61
2021/06/27 20:40:29;;;;;;;7.40;6.40;;;;;;;18.50;84.55;101399.22;10551528;28;20052;-61
2021/06/27 20:45:31;;;;;;;9.52;8.23;;;;;;;18.41;85.18;101394.66;10551833;28;20166;-61
2021/06/27 20:50:33;;;;;;;6.10;5.45;;;;;;;18.30;83.69;101400.81;10552451;28;20072;-61
2021/06/27 20:55:37;;;;;;;6.68;6.13;;;;;;;18.42;86.81;101394.53;10552343;28;20507;-61
2021/06/27 21:00:40;;;;;;;14.77;7.80;;;;;;;18.60;86.46;101388.69;10551677;28;20060;-61
2021/06/27 21:05:43;;;;;;;8.00;7.20;;;;;;;18.46;86.15;101403.94;10551457;28;20503;-61
2021/06/27 21:10:46;;;;;;;9.80;8.63;;;;;;;18.35;85.48;101418.03;10551605;28;20043;-60
2021/06/27 21:15:48;;;;;;;9.13;7.85;;;;;;;18.24;87.70;101417.22;10551156;28;20134;-61
2021/06/27 21:20:50;;;;;;;6.75;5.85;;;;;;;18.23;85.91;101423.50;10551304;28;20105;-60
2021/06/27 21:25:53;;;;;;;13.80;10.45;;;;;;;18.32;86.81;101418.28;10551294;28;20040;-60
2021/06/27 21:30:55;;;;;;;13.32;10.10;;;;;;;18.24;87.47;101415.44;10551174;28;20403;-60
2021/06/27 21:35:57;;;;;;;13.73;10.30;;;;;;;18.23;86.33;101419.03;10544805;28;20044;-60
2021/06/27 21:41:00;;;;;;;11.93;6.88;;;;;;;18.24;86.92;101417.22;10544488;28;20051;-60
2021/06/27 21:46:04;;;;;;;11.20;8.90;;;;;;;18.25;86.75;101425.03;10543638;28;20097;-60
2021/06/27 21:51:06;;;;;;;9.23;7.30;;;;;;;18.43;86.05;101435.16;10544391;28;20048;-60
2021/06/27 21:56:09;;;;;;;14.60;9.18;;;;;;;18.46;84.55;101432.22;10543743;28;20040;-60
2021/06/27 22:01:12;;;;;;;7.88;7.20;;;;;;;18.41;86.32;101442.38;10544368;28;20078;-60
2021/06/27 22:06:14;;;;;;;9.32;6.97;;;;;;;18.62;84.28;101440.63;10543204;28;20140;-60
2021/06/27 22:11:19;;;;;;;18.80;10.95;;;;;;;18.40;86.50;101430.09;10542683;28;20055;-60
2021/06/27 22:16:21;;;;;;;7.28;5.60;;;;;;;18.56;83.60;101426.06;10541817;28;20052;-60
2021/06/27 22:21:25;;;;;;;11.68;8.50;;;;;;;18.44;86.23;101410.31;10542891;28;20044;-60
2021/06/27 22:26:27;;;;;;;12.73;9.27;;;;;;;18.47;85.08;101412.72;10543000;28;20059;-61
2021/06/27 22:31:30;;;;;;;8.82;7.75;;;;;;;18.33;86.77;101422.63;10542403;28;20055;-60
2021/06/27 22:36:33;;;;;;;8.88;6.63;;;;;;;18.56;84.52;101430.53;10541951;28;20044;-60
2021/06/27 22:41:35;;;;;;;15.27;10.05;;;;;;;18.29;87.06;101420.34;10542179;28;20059;-60
2021/06/27 22:46:38;;;;;;;6.60;5.95;;;;;;;18.51;83.69;101412.34;10540332;28;20047;-60
2021/06/27 22:51:40;;;;;;;9.45;8.13;;;;;;;18.13;86.90;101416.25;10541734;28;20052;-60
2021/06/27 22:56:43;;;;;;;12.38;8.55;;;;;;;18.10;86.95;101407.72;10539616;28;20361;-60